createdAt,value
2022-08-18T00:01:24.982Z,6.10
2022-08-18T00:03:55.864Z,7.23
2022-08-18T00:06:28.972Z,6.17
2022-08-18T00:09:04.263Z,7.10
2022-08-18T00:11:45.068Z,6.57
2022-08-18T00:14:22.358Z,5.30
2022-08-18T00:16:53.999Z,6.10
2022-08-18T00:19:43.571Z,5.87
2022-08-18T00:22:19.774Z,6.07
2022-08-18T00:24:55.760Z,5.77
2022-08-18T00:27:29.093Z,6.00
2022-08-18T00:30:01.943Z,5.07
2022-08-18T00:32:49.680Z,5.80
2022-08-18T00:35:31.418Z,5.47
2022-08-18T00:38:02.561Z,5.03
2022-08-18T00:40:40.484Z,5.67
2022-08-18T00:43:20.788Z,5.00
2022-08-18T00:45:47.780Z,5.37
2022-08-18T00:48:16.244Z,5.13
2022-08-18T00:51:08.604Z,5.23
2022-08-18T00:54:15.200Z,5.03
2022-08-18T00:57:00.142Z,5.60
2022-08-18T00:59:47.777Z,4.77
2022-08-18T01:02:36.328Z,5.70
2022-08-18T01:05:21.705Z,4.83
2022-08-18T01:07:51.531Z,5.53
2022-08-18T01:10:23.084Z,6.60
2022-08-18T01:12:56.856Z,6.30
2022-08-18T01:15:30.231Z,6.70
2022-08-18T01:18:28.281Z,7.23
2022-08-18T01:21:45.109Z,6.90
2022-08-18T01:24:17.432Z,6.10
2022-08-18T01:26:51.593Z,6.67
2022-08-18T01:29:20.057Z,6.90
2022-08-18T01:31:56.975Z,7.37
2022-08-18T01:34:27.386Z,7.50
2022-08-18T01:36:56.405Z,7.60
2022-08-18T01:41:17.550Z,8.27
2022-08-18T01:42:19.043Z,7.67
2022-08-18T01:44:51.049Z,7.73
2022-08-18T01:47:18.639Z,7.27
2022-08-18T01:49:45.773Z,8.23
2022-08-18T01:52:20.920Z,8.13
2022-08-18T01:54:49.694Z,7.13
2022-08-18T01:57:20.189Z,7.73
2022-08-18T01:59:47.057Z,7.73
2022-08-18T02:02:25.860Z,9.20
2022-08-18T02:05:02.725Z,7.93
2022-08-18T02:07:36.002Z,8.90
2022-08-18T02:10:12.113Z,8.83
2022-08-18T02:12:41.671Z,8.20
2022-08-18T02:15:10.621Z,9.47
2022-08-18T02:17:44.669Z,8.80
2022-08-18T02:20:17.919Z,9.50
2022-08-18T02:22:47.377Z,9.90
2022-08-18T02:25:16.818Z,9.67
2022-08-18T02:27:45.837Z,10.77
2022-08-18T02:30:18.230Z,9.20
2022-08-18T02:32:45.575Z,9.17
2022-08-18T02:35:12.731Z,9.20
2022-08-18T02:37:42.753Z,9.40
2022-08-18T02:40:15.010Z,10.47
2022-08-18T02:42:45.650Z,9.90
2022-08-18T02:45:14.731Z,10.33
2022-08-18T02:47:42.949Z,9.97
2022-08-18T02:50:13.630Z,9.93
2022-08-18T02:52:41.186Z,10.73
2022-08-18T02:55:09.710Z,10.63
2022-08-18T02:57:41.892Z,10.90
2022-08-18T03:00:13.068Z,11.27
2022-08-18T03:02:40.039Z,11.20
2022-08-18T03:05:10.863Z,10.23
2022-08-18T03:07:41.838Z,10.97
2022-08-18T03:10:33.147Z,11.43
2022-08-18T03:12:57.247Z,13.63
2022-08-18T03:15:24.172Z,10.90
2022-08-18T03:17:53.663Z,11.00
2022-08-18T03:20:30.736Z,10.60
2022-08-18T03:22:59.986Z,11.17
2022-08-18T03:25:33.366Z,10.77
2022-08-18T03:28:03.078Z,11.03
2022-08-18T03:30:30.078Z,10.80
2022-08-18T03:32:57.710Z,11.53
2022-08-18T03:35:24.978Z,11.00
2022-08-18T03:37:52.085Z,11.60
2022-08-18T03:40:19.679Z,10.50
2022-08-18T03:42:46.631Z,9.90
2022-08-18T03:45:17.719Z,11.40
2022-08-18T03:47:45.987Z,10.43
2022-08-18T03:50:13.897Z,10.83
2022-08-18T03:52:41.585Z,10.50
2022-08-18T03:55:09.551Z,11.07
2022-08-18T03:57:39.298Z,11.10
2022-08-18T04:00:09.580Z,11.00
2022-08-18T04:02:36.517Z,11.23
2022-08-18T04:05:05.259Z,10.00
2022-08-18T04:07:32.771Z,11.80
2022-08-18T04:09:59.699Z,10.87
2022-08-18T04:12:26.623Z,10.73
2022-08-18T04:14:53.564Z,11.07
2022-08-18T04:17:25.209Z,11.20
2022-08-18T04:19:56.681Z,11.30
2022-08-18T04:22:26.345Z,11.10
2022-08-18T04:24:54.243Z,10.37
2022-08-18T04:27:22.611Z,10.20
2022-08-18T04:29:50.596Z,10.13
2022-08-18T04:32:19.358Z,11.13
2022-08-18T04:34:46.408Z,10.60
2022-08-18T04:37:15.268Z,10.50
2022-08-18T04:39:44.300Z,10.70
2022-08-18T04:42:11.532Z,10.47
2022-08-18T04:44:38.923Z,10.83
2022-08-18T04:47:10.083Z,11.80
2022-08-18T04:49:38.952Z,11.67
2022-08-18T04:52:40.776Z,11.00
2022-08-18T04:55:10.886Z,11.70
2022-08-18T04:57:38.217Z,11.47
2022-08-18T05:00:08.785Z,10.00
2022-08-18T05:02:35.721Z,10.67
2022-08-18T05:05:04.042Z,10.47
2022-08-18T05:07:32.429Z,11.87
2022-08-18T05:09:59.360Z,11.23
2022-08-18T05:12:26.913Z,11.03
2022-08-18T05:14:57.009Z,13.00
2022-08-18T05:17:28.357Z,10.77
2022-08-18T05:20:01.003Z,11.50
2022-08-18T05:22:31.038Z,10.93
2022-08-18T05:24:58.984Z,11.30
2022-08-18T05:27:31.344Z,10.80
2022-08-18T05:29:58.221Z,12.60
2022-08-18T05:32:42.558Z,10.03
2022-08-18T05:35:33.457Z,12.30
2022-08-18T05:38:52.132Z,11.37
2022-08-18T05:41:38.428Z,11.23
2022-08-18T05:44:12.149Z,11.37
2022-08-18T05:46:56.728Z,11.70
2022-08-18T05:49:27.277Z,12.27
2022-08-18T05:52:19.449Z,11.70
2022-08-18T05:55:12.961Z,10.60
2022-08-18T05:57:57.370Z,10.60
2022-08-18T06:00:26.877Z,9.67
2022-08-18T06:03:28.089Z,10.73
2022-08-18T06:06:16.738Z,9.77
2022-08-18T06:09:23.489Z,10.87
2022-08-18T06:12:07.201Z,10.17
2022-08-18T06:14:40.334Z,9.63
2022-08-18T06:18:12.277Z,9.50
2022-08-18T06:21:19.663Z,9.70
2022-08-18T06:25:24.325Z,10.03
2022-08-18T06:28:17.185Z,8.93
2022-08-18T06:31:46.530Z,8.70
2022-08-18T06:34:45.745Z,8.40
2022-08-18T06:38:27.419Z,9.07
2022-08-18T06:41:41.689Z,9.13
2022-08-18T06:45:00.598Z,7.87
2022-08-18T06:48:19.225Z,8.40
2022-08-18T06:51:03.413Z,8.40
2022-08-18T06:53:58.945Z,8.50
2022-08-18T06:56:44.513Z,7.83
2022-08-18T06:59:40.410Z,9.00
2022-08-18T07:03:22.118Z,8.80
2022-08-18T07:06:24.790Z,8.17
2022-08-18T07:09:29.046Z,8.50
2022-08-18T07:12:10.290Z,8.83
2022-08-18T07:15:01.906Z,8.70
2022-08-18T07:17:43.155Z,7.93
2022-08-18T07:20:29.519Z,9.10
2022-08-18T07:23:08.188Z,9.03
2022-08-18T07:25:52.150Z,8.20
2022-08-18T07:28:54.363Z,8.00
2022-08-18T07:31:51.241Z,9.90
2022-08-18T07:34:39.053Z,8.60
2022-08-18T07:37:37.451Z,7.90
2022-08-18T07:40:29.307Z,7.83
2022-08-18T07:43:25.375Z,7.97
2022-08-18T07:46:05.851Z,8.20
2022-08-18T07:48:38.769Z,9.20
2022-08-18T07:51:47.629Z,8.07
2022-08-18T07:54:58.868Z,8.60
2022-08-18T07:57:42.991Z,8.17
2022-08-18T08:04:25.774Z,8.07
2022-08-18T08:07:35.701Z,8.67
2022-08-18T08:10:49.264Z,8.50
2022-08-18T08:13:55.345Z,8.13
2022-08-18T08:16:42.020Z,8.27
2022-08-18T08:20:01.006Z,8.00
2022-08-18T08:22:58.096Z,9.67
2022-08-18T08:26:00.597Z,9.30
2022-08-18T08:28:57.032Z,9.10
2022-08-18T08:32:05.880Z,8.30
2022-08-18T08:34:54.060Z,8.60
2022-08-18T08:37:53.714Z,9.50
2022-08-18T08:41:05.212Z,9.23
2022-08-18T08:43:47.712Z,9.87
2022-08-18T08:46:31.107Z,9.30
2022-08-18T08:49:22.468Z,9.13
2022-08-18T08:52:02.187Z,10.23
2022-08-18T08:54:46.836Z,8.97
2022-08-18T08:57:17.797Z,9.30
2022-08-18T08:59:51.472Z,9.87
2022-08-18T09:03:06.457Z,9.87
2022-08-18T09:05:59.736Z,10.73
2022-08-18T09:09:14.878Z,10.20
2022-08-18T09:12:09.233Z,9.40
2022-08-18T09:15:33.993Z,9.93
2022-08-18T09:18:56.217Z,10.33
2022-08-18T09:21:46.644Z,9.00
2022-08-18T09:24:28.985Z,9.73
2022-08-18T09:28:08.870Z,9.40
2022-08-18T09:30:54.292Z,10.00
2022-08-18T09:33:33.413Z,8.40
2022-08-18T09:36:27.518Z,8.50
2022-08-18T09:39:31.301Z,9.43
2022-08-18T09:42:29.881Z,8.47
2022-08-18T09:45:04.995Z,9.00
2022-08-18T09:47:33.838Z,9.50
2022-08-18T09:50:05.471Z,9.30
2022-08-18T09:52:37.463Z,7.53
2022-08-18T09:55:17.894Z,8.17
2022-08-18T09:57:47.817Z,9.50
2022-08-18T10:00:33.564Z,9.10
2022-08-18T10:03:13.665Z,9.00
2022-08-18T10:05:59.528Z,9.20
2022-08-18T10:09:36.289Z,10.13
2022-08-18T10:12:48.395Z,7.47
2022-08-18T10:16:11.369Z,7.27
2022-08-18T10:19:33.796Z,6.87
2022-08-18T10:22:11.278Z,7.60
2022-08-18T10:25:09.133Z,7.40
2022-08-18T10:27:56.601Z,7.33
2022-08-18T10:30:34.139Z,7.37
2022-08-18T10:33:17.821Z,8.10
2022-08-18T10:36:00.922Z,8.40
2022-08-18T10:38:46.134Z,6.87
2022-08-18T10:41:31.579Z,7.93
2022-08-18T10:44:10.588Z,7.37
2022-08-18T10:46:53.067Z,8.00
2022-08-18T10:49:28.544Z,7.13
2022-08-18T10:52:41.683Z,6.80
2022-08-18T10:55:48.643Z,7.33
2022-08-18T10:58:37.733Z,7.17
2022-08-18T11:01:20.342Z,7.73
2022-08-18T11:04:47.308Z,7.90
2022-08-18T11:07:33.981Z,7.27
2022-08-18T11:10:30.346Z,7.50
2022-08-18T11:13:29.063Z,7.33
2022-08-18T11:16:33.643Z,6.40
2022-08-18T11:19:14.235Z,7.00
2022-08-18T11:21:51.722Z,6.90
2022-08-18T11:24:27.748Z,6.63
2022-08-18T11:27:02.639Z,6.63
2022-08-18T11:29:36.957Z,7.67
2022-08-18T11:35:45.244Z,7.07
2022-08-18T11:38:20.814Z,6.90
2022-08-18T11:41:13.178Z,6.97
2022-08-18T11:43:43.421Z,6.67
2022-08-18T11:46:39.098Z,6.63
2022-08-18T11:49:33.437Z,6.30
2022-08-18T11:52:30.886Z,6.07
2022-08-18T11:55:14.555Z,6.63
2022-08-18T12:01:03.491Z,6.23
2022-08-18T12:03:48.883Z,6.93
2022-08-18T12:06:31.600Z,6.73
2022-08-18T12:09:04.306Z,7.20
2022-08-18T12:12:09.239Z,6.17
2022-08-18T12:15:13.830Z,8.00
2022-08-18T12:17:52.206Z,5.70
2022-08-18T12:20:21.182Z,5.73
2022-08-18T12:22:49.974Z,5.50
2022-08-18T12:25:25.013Z,5.53
2022-08-18T12:27:55.513Z,6.90
2022-08-18T12:30:23.469Z,5.90
2022-08-18T12:32:56.368Z,6.17
2022-08-18T12:35:34.896Z,5.80
2022-08-18T12:38:11.041Z,6.30
2022-08-18T12:40:42.928Z,5.90
2022-08-18T12:43:10.530Z,5.90
2022-08-18T12:45:38.497Z,6.17
2022-08-18T12:48:07.582Z,6.20
2022-08-18T12:50:49.927Z,5.30
2022-08-18T12:53:29.441Z,5.63
2022-08-18T12:56:32.062Z,5.63
2022-08-18T12:59:05.512Z,5.37
2022-08-18T13:01:35.599Z,5.50
2022-08-18T13:04:13.166Z,5.20
2022-08-18T13:07:00.378Z,5.53
2022-08-18T13:09:47.654Z,6.00
2022-08-18T13:12:20.223Z,6.63
2022-08-18T13:14:50.852Z,6.20
2022-08-18T13:17:29.670Z,5.90
2022-08-18T13:20:13.503Z,5.87
2022-08-18T13:22:41.303Z,7.53
2022-08-18T13:25:32.101Z,6.10
2022-08-18T13:28:01.716Z,6.30
2022-08-18T13:30:31.366Z,6.20
2022-08-18T13:33:05.502Z,5.60
2022-08-18T13:35:54.450Z,5.77
2022-08-18T13:38:25.969Z,6.20
2022-08-18T13:41:00.180Z,4.90
2022-08-18T13:43:39.203Z,5.90
2022-08-18T13:46:13.066Z,5.90
2022-08-18T13:48:41.496Z,6.37
2022-08-18T13:51:15.113Z,5.30
2022-08-18T13:53:51.035Z,5.10
2022-08-18T13:56:31.257Z,5.60
2022-08-18T13:58:59.039Z,5.60
2022-08-18T14:01:44.676Z,5.93
2022-08-18T14:04:20.328Z,5.80
2022-08-18T14:06:56.219Z,6.10
2022-08-18T14:09:27.651Z,5.53
2022-08-18T14:12:23.736Z,5.80
2022-08-18T14:14:56.943Z,5.27
2022-08-18T14:17:25.832Z,6.10
2022-08-18T14:20:21.527Z,5.47
2022-08-18T14:23:12.432Z,5.83
2022-08-18T14:25:59.839Z,5.50
2022-08-18T14:28:30.029Z,5.20
2022-08-18T14:31:03.942Z,5.03
2022-08-18T14:33:50.510Z,5.80
2022-08-18T14:36:29.405Z,5.27
2022-08-18T14:39:01.921Z,5.40
2022-08-18T14:41:31.255Z,5.00
2022-08-18T14:44:13.228Z,5.33
2022-08-18T14:46:52.453Z,5.57
2022-08-18T14:49:28.185Z,5.10
2022-08-18T14:52:01.199Z,6.30
2022-08-18T14:54:31.041Z,5.90
2022-08-18T14:57:03.442Z,5.60
2022-08-18T14:59:34.661Z,5.70
2022-08-18T15:02:11.236Z,5.50
2022-08-18T15:04:56.120Z,5.60
2022-08-18T15:07:24.372Z,5.60
2022-08-18T15:09:51.303Z,5.80
2022-08-18T15:12:39.255Z,5.67
2022-08-18T15:15:16.765Z,5.67
2022-08-18T15:17:52.702Z,5.90
2022-08-18T15:20:29.696Z,5.53
2022-08-18T15:23:28.092Z,5.47
2022-08-18T15:25:56.682Z,5.20
2022-08-18T15:28:27.366Z,5.57
2022-08-18T15:33:42.058Z,5.23
2022-08-18T15:36:10.211Z,5.83
2022-08-18T15:38:38.238Z,5.63
2022-08-18T15:41:06.000Z,6.10
2022-08-18T15:43:37.007Z,5.53
2022-08-18T15:46:16.586Z,6.37
2022-08-18T15:48:44.085Z,6.20
2022-08-18T15:51:12.188Z,6.03
2022-08-18T15:53:44.970Z,5.70
2022-08-18T15:56:22.809Z,6.30
2022-08-18T15:58:53.140Z,5.70
2022-08-18T16:01:30.231Z,5.90
2022-08-18T16:03:58.435Z,5.60
2022-08-18T16:06:27.746Z,7.63
2022-08-18T16:09:00.217Z,6.80
2022-08-18T16:11:29.847Z,7.50
2022-08-18T16:14:00.747Z,5.97
2022-08-18T16:16:29.197Z,6.07
2022-08-18T16:19:07.437Z,6.37
2022-08-18T16:21:39.522Z,7.30
2022-08-18T16:24:08.962Z,5.63
2022-08-18T16:26:36.395Z,5.63
2022-08-18T16:29:03.899Z,5.60
2022-08-18T16:31:31.027Z,6.80
2022-08-18T16:33:58.365Z,6.63
2022-08-18T16:36:26.521Z,6.33
2022-08-18T16:38:58.472Z,6.97
2022-08-18T16:41:26.635Z,6.23
2022-08-18T16:43:54.341Z,7.30
2022-08-18T16:46:26.383Z,6.83
2022-08-18T16:48:57.612Z,7.00
2022-08-18T16:51:28.336Z,6.27
2022-08-18T16:53:55.740Z,7.00
2022-08-18T16:56:28.459Z,6.67
2022-08-18T16:59:16.007Z,7.33
2022-08-18T17:02:01.823Z,7.20
2022-08-18T17:04:35.524Z,7.73
2022-08-18T17:07:06.235Z,7.30
2022-08-18T17:09:35.624Z,7.10
2022-08-18T17:12:04.831Z,7.40
2022-08-18T17:14:32.686Z,7.27
2022-08-18T17:17:00.566Z,8.10
2022-08-18T17:19:33.961Z,8.23
2022-08-18T17:22:05.117Z,7.47
2022-08-18T17:24:32.681Z,7.43
2022-08-18T17:27:26.504Z,8.00
2022-08-18T17:30:16.418Z,7.63
2022-08-18T17:33:12.557Z,7.50
2022-08-18T17:35:46.338Z,7.97
2022-08-18T17:38:59.928Z,7.77
2022-08-18T17:41:28.354Z,7.60
2022-08-18T17:44:00.718Z,8.13
2022-08-18T17:46:39.955Z,7.07
2022-08-18T17:50:27.146Z,7.83
2022-08-18T17:53:05.747Z,8.53
2022-08-18T17:56:07.621Z,7.20
2022-08-18T17:59:45.876Z,7.53
2022-08-18T18:02:29.932Z,7.80
2022-08-18T18:05:01.849Z,8.23
2022-08-18T18:07:56.487Z,7.60
2022-08-18T18:10:51.083Z,7.37
2022-08-18T18:13:32.299Z,6.97
2022-08-18T18:16:23.989Z,8.00
2022-08-18T18:19:13.884Z,7.10
2022-08-18T18:22:00.575Z,7.50
2022-08-18T18:24:41.269Z,7.70
2022-08-18T18:27:33.024Z,7.80
2022-08-18T18:30:10.014Z,8.00
2022-08-18T18:33:04.366Z,7.87
2022-08-18T18:35:54.842Z,7.63
2022-08-18T18:38:48.832Z,7.43
2022-08-18T18:41:28.050Z,7.10
2022-08-18T18:44:14.173Z,7.37
2022-08-18T18:47:02.334Z,7.73
2022-08-18T18:49:58.334Z,8.23
2022-08-18T18:52:54.041Z,8.20
2022-08-18T18:55:31.329Z,7.87
2022-08-18T18:58:45.742Z,7.43
2022-08-18T19:02:00.882Z,7.53
2022-08-18T19:04:50.826Z,8.10
2022-08-18T19:07:45.599Z,8.03
2022-08-18T19:10:36.915Z,7.83
2022-08-18T19:13:33.363Z,8.10
2022-08-18T19:16:29.143Z,8.27
2022-08-18T19:19:44.483Z,7.40
2022-08-18T19:22:25.320Z,7.90
2022-08-18T19:25:41.250Z,8.30
2022-08-18T19:29:12.629Z,8.30
2022-08-18T19:31:39.945Z,7.77
2022-08-18T19:34:26.190Z,7.80
2022-08-18T19:37:27.520Z,8.60
2022-08-18T19:40:09.530Z,9.50
2022-08-18T19:43:03.307Z,9.07
2022-08-18T19:45:40.716Z,9.23
2022-08-18T19:48:26.284Z,8.63
2022-08-18T19:51:27.011Z,9.33
2022-08-18T19:54:50.676Z,9.80
2022-08-18T19:57:46.835Z,10.20
2022-08-18T20:00:52.058Z,9.03
2022-08-18T20:04:10.829Z,10.20
2022-08-18T20:07:18.200Z,9.70
2022-08-18T20:09:57.460Z,10.00
2022-08-18T20:13:32.353Z,8.97
2022-08-18T20:16:10.598Z,9.70
2022-08-18T20:18:51.680Z,9.43
2022-08-18T20:21:20.132Z,10.43
2022-08-18T20:23:59.389Z,10.03
2022-08-18T20:26:38.096Z,9.80
2022-08-18T20:29:36.166Z,10.20
2022-08-18T20:32:19.304Z,11.90
2022-08-18T20:34:51.736Z,13.47
2022-08-18T20:37:27.450Z,12.80
2022-08-18T20:39:55.819Z,14.50
2022-08-18T20:42:22.658Z,13.30
2022-08-18T20:45:06.545Z,14.07
2022-08-18T20:48:12.596Z,13.97
2022-08-18T20:51:03.115Z,14.43
2022-08-18T20:53:57.645Z,14.30
2022-08-18T20:56:48.260Z,15.13
2022-08-18T20:59:33.380Z,14.60
2022-08-18T21:02:30.724Z,15.40
2022-08-18T21:05:00.660Z,13.67
2022-08-18T21:08:14.086Z,15.27
2022-08-18T21:11:05.187Z,16.63
2022-08-18T21:13:40.864Z,15.63
2022-08-18T21:16:38.772Z,16.60
2022-08-18T21:19:24.569Z,16.50
2022-08-18T21:21:58.912Z,17.17
2022-08-18T21:24:37.100Z,17.53
2022-08-18T21:27:19.552Z,18.00
2022-08-18T21:29:49.807Z,18.50
2022-08-18T21:32:39.244Z,20.40
2022-08-18T21:35:37.952Z,21.90
2022-08-18T21:38:12.736Z,21.37
2022-08-18T21:40:51.891Z,22.10
2022-08-18T21:43:48.849Z,21.90
2022-08-18T21:46:30.717Z,23.60
2022-08-18T21:49:04.902Z,27.50
2022-08-18T21:51:49.253Z,22.87
2022-08-18T21:54:27.807Z,23.10
2022-08-18T21:58:18.001Z,25.10
2022-08-18T22:01:28.230Z,25.30
2022-08-18T22:03:59.497Z,24.77
2022-08-18T22:06:32.555Z,26.03
2022-08-18T22:09:33.729Z,26.50
2022-08-18T22:12:50.502Z,27.53
2022-08-18T22:15:20.943Z,26.17
2022-08-18T22:18:28.522Z,26.47
2022-08-18T22:21:00.272Z,27.80
2022-08-18T22:24:13.017Z,27.87
2022-08-18T22:26:40.456Z,27.80
2022-08-18T22:29:13.417Z,28.13
2022-08-18T22:31:49.666Z,29.23
2022-08-18T22:34:31.953Z,28.87
2022-08-18T22:37:16.658Z,29.67
2022-08-18T22:40:10.050Z,28.83
2022-08-18T22:42:38.329Z,27.53
2022-08-18T22:45:13.868Z,29.83
2022-08-18T22:47:43.290Z,30.30
2022-08-18T22:50:13.621Z,30.90
2022-08-18T22:52:48.160Z,32.07
2022-08-18T22:55:22.013Z,33.20
2022-08-18T22:57:55.789Z,32.30
2022-08-18T23:00:25.734Z,35.07
2022-08-18T23:02:54.573Z,35.70
2022-08-18T23:05:21.950Z,36.50
2022-08-18T23:07:49.773Z,38.50
2022-08-18T23:10:17.114Z,37.60
2022-08-18T23:12:48.150Z,34.90
2022-08-18T23:15:18.629Z,36.90
2022-08-18T23:17:45.800Z,34.80
2022-08-18T23:20:19.287Z,39.90
2022-08-18T23:22:48.152Z,38.37
2022-08-18T23:25:16.313Z,40.07
2022-08-18T23:27:43.449Z,42.80
2022-08-18T23:30:12.533Z,40.10
2022-08-18T23:32:39.531Z,39.60
2022-08-18T23:35:07.101Z,40.20
2022-08-18T23:37:34.018Z,38.67
2022-08-18T23:40:00.926Z,39.17
2022-08-18T23:42:27.933Z,38.70
2022-08-18T23:44:58.819Z,38.80
2022-08-18T23:47:25.715Z,38.50
2022-08-18T23:49:54.275Z,36.23
2022-08-18T23:52:21.410Z,40.60
2022-08-18T23:54:48.355Z,39.37
2022-08-18T23:57:15.310Z,40.33
2022-08-18T23:59:42.546Z,36.23
